PWSweather.com
Personal Weather Stations
Station Observations
IBOURGOG6
IsSurTilleFR

IsSurTilleFR

Lat: 47.521958, Lon: 5.112544000000071

Elevation: 902

Station Type: WMR200

http://meteotille.tbdt.fr

High Low Average
Temperature 62.1°F16.7°C 48.9°F9.4°C 53.5°F11.9°C
Dew Point 48.7°F9.3°C 40.2°F4.6°C 46.0°F7.8°C
Winds Calm Calm Calm Calm Calm Calm
Wind Gusts -- -- --
Humidity 86% 48% 76%
Pressure 29.09 in985.1 mb 28.88 in978.0 mb -
Precipitation 0.24 in6.1 mm - -
Hour Temp Dew Point Humidity Winds Wind Gusts Pressure Precip Precip Rate Daily Precip Total
12:00 AM 56.3°F13.5°C 47.0°F8.3°C 71% Calm Calm -- 28.91 in979.0 mb 0.00 in0.0 mm 0.00 in0.0 mm 0.00 in0.0 mm
12:10 AM 56.3°F13.5°C 47.4°F8.6°C 72% Calm Calm -- 28.91 in979.0 mb 0.00 in0.0 mm 0.00 in0.0 mm 0.00 in0.0 mm
12:20 AM 56.1°F13.4°C 46.8°F8.2°C 71% Calm Calm -- 28.91 in979.0 mb 0.00 in0.0 mm 0.00 in0.0 mm 0.00 in0.0 mm
12:30 AM 56.1°F13.4°C 46.8°F8.2°C 71% Calm Calm -- 28.91 in979.0 mb 0.00 in0.0 mm 0.00 in0.0 mm 0.00 in0.0 mm
12:40 AM 56.1°F13.4°C 47.2°F8.4°C 72% Calm Calm -- 28.91 in979.0 mb 0.00 in0.0 mm 0.00 in0.0 mm 0.00 in0.0 mm
12:50 AM 56.1°F13.4°C 46.8°F8.2°C 71% Calm Calm -- 28.88 in978.0 mb 0.00 in0.0 mm 0.00 in0.0 mm 0.00 in0.0 mm
01:00 AM 56.1°F13.4°C 46.8°F8.2°C 71% Calm Calm -- 28.88 in978.0 mb 0.00 in0.0 mm 0.00 in0.0 mm 0.00 in0.0 mm
01:10 AM 56.3°F13.5°C 47.0°F8.3°C 71% Calm Calm -- 28.91 in979.0 mb 0.00 in0.0 mm 0.00 in0.0 mm 0.00 in0.0 mm
01:20 AM 56.1°F13.4°C 46.8°F8.2°C 71% Calm Calm -- 28.91 in979.0 mb 0.00 in0.0 mm 0.00 in0.0 mm 0.00 in0.0 mm
01:30 AM 55.8°F13.2°C 47.2°F8.4°C 73% Calm Calm -- 28.91 in979.0 mb 0.00 in0.0 mm 0.00 in0.0 mm 0.00 in0.0 mm
01:40 AM 55.4°F13.0°C 47.2°F8.4°C 74% Calm Calm -- 28.91 in979.0 mb 0.00 in0.0 mm 0.00 in0.0 mm 0.00 in0.0 mm
01:50 AM 55.6°F13.1°C 47.4°F8.6°C 74% Calm Calm -- 28.91 in979.0 mb 0.00 in0.0 mm 0.00 in0.0 mm 0.00 in0.0 mm
02:00 AM 55.2°F12.9°C 47.8°F8.8°C 76% Calm Calm -- 28.91 in979.0 mb 0.00 in0.0 mm 0.00 in0.0 mm 0.00 in0.0 mm
02:10 AM 54.9°F12.7°C 48.5°F9.2°C 79% Calm Calm -- 28.91 in979.0 mb 0.00 in0.0 mm 0.00 in0.0 mm 0.00 in0.0 mm
02:20 AM 54.7°F12.6°C 48.6°F9.2°C 80% Calm Calm -- 28.91 in979.0 mb 0.00 in0.0 mm 0.00 in0.0 mm 0.00 in0.0 mm
02:30 AM 54.5°F12.5°C 48.5°F9.2°C 80% Calm Calm -- 28.91 in979.0 mb 0.00 in0.0 mm 0.00 in0.0 mm 0.00 in0.0 mm
02:40 AM 54.7°F12.6°C 48.3°F9.1°C 79% Calm Calm -- 28.91 in979.0 mb 0.00 in0.0 mm 0.00 in0.0 mm 0.00 in0.0 mm
02:50 AM 54.5°F12.5°C 47.4°F8.6°C 77% Calm Calm -- 28.91 in979.0 mb 0.00 in0.0 mm 0.00 in0.0 mm 0.00 in0.0 mm
03:00 AM 54.1°F12.3°C 47.1°F8.4°C 77% Calm Calm -- 28.91 in979.0 mb 0.00 in0.0 mm 0.00 in0.0 mm 0.00 in0.0 mm
03:10 AM 54.0°F12.2°C 46.6°F8.1°C 76% Calm Calm -- 28.91 in979.0 mb 0.00 in0.0 mm 0.00 in0.0 mm 0.00 in0.0 mm
03:20 AM 54.0°F12.2°C 46.6°F8.1°C 76% Calm Calm -- 28.91 in979.0 mb 0.00 in0.0 mm 0.00 in0.0 mm 0.00 in0.0 mm
03:30 AM 53.8°F12.1°C 46.4°F8.0°C 76% Calm Calm -- 28.91 in979.0 mb 0.00 in0.0 mm 0.00 in0.0 mm 0.00 in0.0 mm
03:40 AM 53.8°F12.1°C 46.4°F8.0°C 76% Calm Calm -- 28.91 in979.0 mb 0.00 in0.0 mm 0.00 in0.0 mm 0.00 in0.0 mm
03:50 AM 53.8°F12.1°C 46.0°F7.8°C 75% Calm Calm -- 28.91 in979.0 mb 0.00 in0.0 mm 0.00 in0.0 mm 0.00 in0.0 mm
04:00 AM 53.8°F12.1°C 46.0°F7.8°C 75% Calm Calm -- 28.91 in979.0 mb 0.00 in0.0 mm 0.00 in0.0 mm 0.00 in0.0 mm
04:10 AM 54.0°F12.2°C 46.2°F7.9°C 75% Calm Calm -- 28.91 in979.0 mb 0.00 in0.0 mm 0.00 in0.0 mm 0.00 in0.0 mm
04:20 AM 54.1°F12.3°C 47.1°F8.4°C 77% Calm Calm -- 28.91 in979.0 mb 0.00 in0.0 mm 0.00 in0.0 mm 0.00 in0.0 mm
04:30 AM 54.0°F12.2°C 47.6°F8.7°C 79% Calm Calm -- 28.91 in979.0 mb 0.00 in0.0 mm 0.00 in0.0 mm 0.00 in0.0 mm
04:40 AM 53.6°F12.0°C 47.2°F8.4°C 79% Calm Calm -- 28.91 in979.0 mb 0.00 in0.0 mm 0.00 in0.0 mm 0.00 in0.0 mm
04:50 AM 53.6°F12.0°C 47.9°F8.8°C 81% Calm Calm -- 28.94 in980.0 mb 0.00 in0.0 mm 0.00 in0.0 mm 0.00 in0.0 mm
05:00 AM 53.6°F12.0°C 47.9°F8.8°C 81% Calm Calm -- 28.94 in980.0 mb 0.00 in0.0 mm 0.00 in0.0 mm 0.00 in0.0 mm
05:10 AM 53.6°F12.0°C 48.2°F9.0°C 82% Calm Calm -- 28.91 in979.0 mb 0.00 in0.0 mm 0.00 in0.0 mm 0.00 in0.0 mm
05:20 AM 53.6°F12.0°C 48.2°F9.0°C 82% Calm Calm -- 28.91 in979.0 mb 0.04 in1.0 mm 0.24 in6.1 mm 0.04 in1.0 mm
05:30 AM 53.6°F12.0°C 48.2°F9.0°C 82% Calm Calm -- 28.91 in979.0 mb 0.04 in1.0 mm 0.00 in0.0 mm 0.04 in1.0 mm
05:40 AM 53.6°F12.0°C 48.2°F9.0°C 82% Calm Calm -- 28.91 in979.0 mb 0.04 in1.0 mm 0.00 in0.0 mm 0.04 in1.0 mm
05:50 AM 53.2°F11.8°C 48.2°F9.0°C 83% Calm Calm -- 28.91 in979.0 mb 0.04 in1.0 mm 0.00 in0.0 mm 0.04 in1.0 mm
06:00 AM 53.4°F11.9°C 48.7°F9.3°C 84% Calm Calm -- 28.91 in979.0 mb 0.04 in1.0 mm 0.00 in0.0 mm 0.04 in1.0 mm
06:10 AM 53.1°F11.7°C 48.0°F8.9°C 83% Calm Calm -- 28.88 in978.0 mb 0.04 in1.0 mm 0.00 in0.0 mm 0.04 in1.0 mm
06:20 AM 52.9°F11.6°C 47.9°F8.8°C 83% Calm Calm -- 28.91 in979.0 mb 0.00 in0.0 mm 0.00 in0.0 mm 0.04 in1.0 mm
06:30 AM 52.7°F11.5°C 47.7°F8.7°C 83% Calm Calm -- 28.91 in979.0 mb 0.00 in0.0 mm 0.00 in0.0 mm 0.04 in1.0 mm
06:40 AM 52.7°F11.5°C 47.7°F8.7°C 83% Calm Calm -- 28.91 in979.0 mb 0.00 in0.0 mm 0.00 in0.0 mm 0.04 in1.0 mm
06:50 AM 52.3°F11.3°C 47.3°F8.5°C 83% Calm Calm -- 28.94 in980.0 mb 0.00 in0.0 mm 0.00 in0.0 mm 0.04 in1.0 mm
07:00 AM 52.2°F11.2°C 47.2°F8.4°C 83% Calm Calm -- 28.94 in980.0 mb 0.00 in0.0 mm 0.00 in0.0 mm 0.04 in1.0 mm
07:10 AM 52.2°F11.2°C 47.2°F8.4°C 83% Calm Calm -- 28.94 in980.0 mb 0.00 in0.0 mm 0.00 in0.0 mm 0.04 in1.0 mm
07:20 AM 51.6°F10.9°C 46.6°F8.1°C 83% Calm Calm -- 28.94 in980.0 mb 0.04 in1.0 mm 0.24 in6.1 mm 0.08 in2.0 mm
07:30 AM 51.6°F10.9°C 46.9°F8.3°C 84% Calm Calm -- 28.94 in980.0 mb 0.04 in1.0 mm 0.00 in0.0 mm 0.08 in2.0 mm
07:40 AM 51.6°F10.9°C 46.9°F8.3°C 84% Calm Calm -- 28.94 in980.0 mb 0.04 in1.0 mm 0.00 in0.0 mm 0.08 in2.0 mm
07:50 AM 51.4°F10.8°C 46.4°F8.0°C 83% Calm Calm -- 28.97 in981.0 mb 0.04 in1.0 mm 0.00 in0.0 mm 0.08 in2.0 mm
08:00 AM 51.3°F10.7°C 46.3°F7.9°C 83% Calm Calm -- 28.97 in981.0 mb 0.04 in1.0 mm 0.00 in0.0 mm 0.08 in2.0 mm
08:10 AM 51.6°F10.9°C 46.9°F8.3°C 84% Calm Calm -- 28.97 in981.0 mb 0.04 in1.0 mm 0.00 in0.0 mm 0.08 in2.0 mm
08:20 AM 51.6°F10.9°C 46.9°F8.3°C 84% Calm Calm -- 28.94 in980.0 mb 0.00 in0.0 mm 0.00 in0.0 mm 0.08 in2.0 mm
08:30 AM 51.8°F11.0°C 47.1°F8.4°C 84% Calm Calm -- 28.94 in980.0 mb 0.00 in0.0 mm 0.00 in0.0 mm 0.08 in2.0 mm
08:40 AM 51.8°F11.0°C 47.1°F8.4°C 84% Calm Calm -- 28.97 in981.0 mb 0.00 in0.0 mm 0.00 in0.0 mm 0.08 in2.0 mm
08:50 AM 52.0°F11.1°C 47.3°F8.5°C 84% Calm Calm -- 28.97 in981.0 mb 0.00 in0.0 mm 0.00 in0.0 mm 0.08 in2.0 mm
09:00 AM 52.0°F11.1°C 47.3°F8.5°C 84% Calm Calm -- 28.97 in981.0 mb 0.04 in1.0 mm 0.05 in1.3 mm 0.12 in3.0 mm
09:10 AM 52.3°F11.3°C 48.0°F8.9°C 85% Calm Calm -- 28.97 in981.0 mb 0.04 in1.0 mm 0.00 in0.0 mm 0.12 in3.0 mm
09:20 AM 52.3°F11.3°C 47.6°F8.7°C 84% Calm Calm -- 28.97 in981.0 mb 0.04 in1.0 mm 0.00 in0.0 mm 0.12 in3.0 mm
09:30 AM 52.5°F11.4°C 47.8°F8.8°C 84% Calm Calm -- 28.97 in981.0 mb 0.04 in1.0 mm 0.00 in0.0 mm 0.12 in3.0 mm
09:40 AM 52.9°F11.6°C 48.2°F9.0°C 84% Calm Calm -- 28.97 in981.0 mb 0.04 in1.0 mm 0.00 in0.0 mm 0.12 in3.0 mm
09:50 AM 53.1°F11.7°C 48.0°F8.9°C 83% Calm Calm -- 28.97 in981.0 mb 0.04 in1.0 mm 0.00 in0.0 mm 0.12 in3.0 mm
10:00 AM 53.2°F11.8°C 47.9°F8.8°C 82% Calm Calm -- 28.97 in981.0 mb 0.00 in0.0 mm 0.00 in0.0 mm 0.12 in3.0 mm
10:10 AM 53.2°F11.8°C 48.2°F9.0°C 83% Calm Calm -- 28.97 in981.0 mb 0.00 in0.0 mm 0.00 in0.0 mm 0.12 in3.0 mm
10:20 AM 53.4°F11.9°C 48.4°F9.1°C 83% Calm Calm -- 29.00 in982.1 mb 0.00 in0.0 mm 0.00 in0.0 mm 0.12 in3.0 mm
10:30 AM 53.8°F12.1°C 48.4°F9.1°C 82% Calm Calm -- 29.00 in982.1 mb 0.00 in0.0 mm 0.00 in0.0 mm 0.12 in3.0 mm
10:40 AM 53.6°F12.0°C 47.6°F8.7°C 80% Calm Calm -- 28.97 in981.0 mb 0.00 in0.0 mm 0.00 in0.0 mm 0.12 in3.0 mm
10:50 AM 53.8°F12.1°C 47.1°F8.4°C 78% Calm Calm -- 29.00 in982.1 mb 0.00 in0.0 mm 0.00 in0.0 mm 0.12 in3.0 mm
11:00 AM 53.8°F12.1°C 45.7°F7.6°C 74% Calm Calm -- 29.00 in982.1 mb 0.00 in0.0 mm 0.00 in0.0 mm 0.12 in3.0 mm
11:10 AM 54.0°F12.2°C 45.1°F7.3°C 72% Calm Calm -- 29.00 in982.1 mb 0.00 in0.0 mm 0.00 in0.0 mm 0.12 in3.0 mm
11:20 AM 54.5°F12.5°C 45.7°F7.6°C 72% Calm Calm -- 29.00 in982.1 mb 0.00 in0.0 mm 0.00 in0.0 mm 0.12 in3.0 mm
11:30 AM 54.5°F12.5°C 44.5°F6.9°C 69% Calm Calm -- 29.00 in982.1 mb 0.00 in0.0 mm 0.00 in0.0 mm 0.12 in3.0 mm
11:40 AM 55.0°F12.8°C 45.8°F7.7°C 71% Calm Calm -- 29.00 in982.1 mb 0.00 in0.0 mm 0.00 in0.0 mm 0.12 in3.0 mm
11:50 AM 55.6°F13.1°C 45.6°F7.6°C 69% Calm Calm -- 29.00 in982.1 mb 0.00 in0.0 mm 0.00 in0.0 mm 0.12 in3.0 mm
12:00 PM 56.1°F13.4°C 46.1°F7.8°C 69% Calm Calm -- 29.00 in982.1 mb 0.00 in0.0 mm 0.00 in0.0 mm 0.12 in3.0 mm
12:10 PM 56.7°F13.7°C 45.8°F7.7°C 67% Calm Calm -- 29.00 in982.1 mb 0.00 in0.0 mm 0.00 in0.0 mm 0.12 in3.0 mm
12:20 PM 57.2°F14.0°C 44.3°F6.8°C 62% Calm Calm -- 29.00 in982.1 mb 0.00 in0.0 mm 0.00 in0.0 mm 0.12 in3.0 mm
12:30 PM 57.2°F14.0°C 45.1°F7.3°C 64% Calm Calm -- 29.00 in982.1 mb 0.00 in0.0 mm 0.00 in0.0 mm 0.12 in3.0 mm
12:40 PM 55.2°F12.9°C 43.7°F6.5°C 65% Calm Calm -- 29.00 in982.1 mb 0.00 in0.0 mm 0.00 in0.0 mm 0.12 in3.0 mm
12:50 PM 53.6°F12.0°C 44.0°F6.7°C 70% Calm Calm -- 29.00 in982.1 mb 0.00 in0.0 mm 0.00 in0.0 mm 0.12 in3.0 mm
01:00 PM 52.9°F11.6°C 43.7°F6.5°C 71% Calm Calm -- 29.00 in982.1 mb 0.00 in0.0 mm 0.00 in0.0 mm 0.12 in3.0 mm
01:10 PM 52.9°F11.6°C 44.5°F6.9°C 73% Calm Calm -- 29.00 in982.1 mb 0.00 in0.0 mm 0.00 in0.0 mm 0.12 in3.0 mm
01:20 PM 52.9°F11.6°C 44.8°F7.1°C 74% Calm Calm -- 29.00 in982.1 mb 0.00 in0.0 mm 0.00 in0.0 mm 0.12 in3.0 mm
01:30 PM 53.1°F11.7°C 45.3°F7.4°C 75% Calm Calm -- 29.00 in982.1 mb 0.00 in0.0 mm 0.00 in0.0 mm 0.12 in3.0 mm
01:40 PM 53.8°F12.1°C 45.7°F7.6°C 74% Calm Calm -- 29.00 in982.1 mb 0.00 in0.0 mm 0.00 in0.0 mm 0.12 in3.0 mm
01:50 PM 54.9°F12.7°C 46.0°F7.8°C 72% Calm Calm -- 29.00 in982.1 mb 0.00 in0.0 mm 0.00 in0.0 mm 0.12 in3.0 mm
02:00 PM 56.3°F13.5°C 44.7°F7.1°C 65% Calm Calm -- 29.00 in982.1 mb 0.00 in0.0 mm 0.00 in0.0 mm 0.12 in3.0 mm
02:10 PM 57.0°F13.9°C 45.0°F7.2°C 64% Calm Calm -- 29.00 in982.1 mb 0.00 in0.0 mm 0.00 in0.0 mm 0.12 in3.0 mm
02:20 PM 57.9°F14.4°C 44.5°F6.9°C 61% Calm Calm -- 29.00 in982.1 mb 0.00 in0.0 mm 0.00 in0.0 mm 0.12 in3.0 mm
02:30 PM 58.1°F14.5°C 43.4°F6.3°C 58% Calm Calm -- 29.00 in982.1 mb 0.00 in0.0 mm 0.00 in0.0 mm 0.12 in3.0 mm
02:40 PM 58.8°F14.9°C 43.6°F6.4°C 57% Calm Calm -- 29.00 in982.1 mb 0.00 in0.0 mm 0.00 in0.0 mm 0.12 in3.0 mm
02:50 PM 59.9°F15.5°C 43.2°F6.2°C 54% Calm Calm -- 29.00 in982.1 mb 0.00 in0.0 mm 0.00 in0.0 mm 0.12 in3.0 mm
03:00 PM 61.0°F16.1°C 43.2°F6.2°C 52% Calm Calm -- 29.00 in982.1 mb 0.00 in0.0 mm 0.00 in0.0 mm 0.12 in3.0 mm
03:10 PM 61.2°F16.2°C 41.3°F5.2°C 48% Calm Calm -- 29.00 in982.1 mb 0.00 in0.0 mm 0.00 in0.0 mm 0.12 in3.0 mm
03:20 PM 62.1°F16.7°C 42.1°F5.6°C 48% Calm Calm -- 29.00 in982.1 mb 0.00 in0.0 mm 0.00 in0.0 mm 0.12 in3.0 mm
03:30 PM 61.9°F16.6°C 42.0°F5.6°C 48% Calm Calm -- 29.00 in982.1 mb 0.00 in0.0 mm 0.00 in0.0 mm 0.12 in3.0 mm
03:40 PM 60.8°F16.0°C 41.0°F5.0°C 48% Calm Calm -- 29.00 in982.1 mb 0.00 in0.0 mm 0.00 in0.0 mm 0.12 in3.0 mm
03:50 PM 59.5°F15.3°C 41.9°F5.5°C 52% Calm Calm -- 29.00 in982.1 mb 0.00 in0.0 mm 0.00 in0.0 mm 0.12 in3.0 mm
04:00 PM 56.7°F13.7°C 40.2°F4.6°C 54% Calm Calm -- 29.00 in982.1 mb 0.00 in0.0 mm 0.00 in0.0 mm 0.12 in3.0 mm
04:10 PM 53.6°F12.0°C 41.3°F5.2°C 63% Calm Calm -- 29.03 in983.1 mb 0.08 in2.0 mm 0.48 in12.2 mm 0.20 in5.1 mm
04:20 PM 53.1°F11.7°C 42.8°F6.0°C 68% Calm Calm -- 29.03 in983.1 mb 0.12 in3.0 mm 0.24 in6.1 mm 0.24 in6.1 mm
04:30 PM 52.5°F11.4°C 43.0°F6.1°C 70% Calm Calm -- 29.03 in983.1 mb 0.12 in3.0 mm 0.00 in0.0 mm 0.24 in6.1 mm
04:40 PM 51.8°F11.0°C 43.1°F6.2°C 72% Calm Calm -- 29.00 in982.1 mb 0.12 in3.0 mm 0.00 in0.0 mm 0.24 in6.1 mm
04:50 PM 51.4°F10.8°C 43.1°F6.2°C 73% Calm Calm -- 29.00 in982.1 mb 0.12 in3.0 mm 0.00 in0.0 mm 0.24 in6.1 mm
05:00 PM 52.0°F11.1°C 44.3°F6.8°C 75% Calm Calm -- 29.00 in982.1 mb 0.12 in3.0 mm 0.00 in0.0 mm 0.24 in6.1 mm
05:10 PM 51.4°F10.8°C 43.8°F6.6°C 75% Calm Calm -- 29.03 in983.1 mb 0.04 in1.0 mm 0.00 in0.0 mm 0.24 in6.1 mm
05:20 PM 51.3°F10.7°C 45.3°F7.4°C 80% Calm Calm -- 29.03 in983.1 mb 0.00 in0.0 mm 0.00 in0.0 mm 0.24 in6.1 mm
05:30 PM 51.3°F10.7°C 45.0°F7.2°C 79% Calm Calm -- 29.03 in983.1 mb 0.00 in0.0 mm 0.00 in0.0 mm 0.24 in6.1 mm
05:40 PM 51.3°F10.7°C 45.0°F7.2°C 79% Calm Calm -- 29.06 in984.1 mb 0.00 in0.0 mm 0.00 in0.0 mm 0.24 in6.1 mm
05:50 PM 51.4°F10.8°C 45.5°F7.5°C 80% Calm Calm -- 29.03 in983.1 mb 0.00 in0.0 mm 0.00 in0.0 mm 0.24 in6.1 mm
06:00 PM 52.0°F11.1°C 45.3°F7.4°C 78% Calm Calm -- 29.03 in983.1 mb 0.00 in0.0 mm 0.00 in0.0 mm 0.24 in6.1 mm
06:10 PM 52.0°F11.1°C 45.0°F7.2°C 77% Calm Calm -- 29.06 in984.1 mb 0.00 in0.0 mm 0.00 in0.0 mm 0.24 in6.1 mm
06:20 PM 52.2°F11.2°C 45.5°F7.5°C 78% Calm Calm -- 29.03 in983.1 mb 0.00 in0.0 mm 0.00 in0.0 mm 0.24 in6.1 mm
06:30 PM 52.5°F11.4°C 45.9°F7.7°C 78% Calm Calm -- 29.03 in983.1 mb 0.00 in0.0 mm 0.00 in0.0 mm 0.24 in6.1 mm
06:40 PM 52.2°F11.2°C 45.8°F7.7°C 79% Calm Calm -- 29.03 in983.1 mb 0.00 in0.0 mm 0.00 in0.0 mm 0.24 in6.1 mm
06:50 PM 52.2°F11.2°C 46.2°F7.9°C 80% Calm Calm -- 29.03 in983.1 mb 0.00 in0.0 mm 0.00 in0.0 mm 0.24 in6.1 mm
07:00 PM 52.3°F11.3°C 46.4°F8.0°C 80% Calm Calm -- 29.03 in983.1 mb 0.00 in0.0 mm 0.00 in0.0 mm 0.24 in6.1 mm
07:10 PM 52.3°F11.3°C 46.4°F8.0°C 80% Calm Calm -- 29.03 in983.1 mb 0.00 in0.0 mm 0.00 in0.0 mm 0.24 in6.1 mm
07:20 PM 52.0°F11.1°C 46.3°F7.9°C 81% Calm Calm -- 29.03 in983.1 mb 0.00 in0.0 mm 0.00 in0.0 mm 0.24 in6.1 mm
07:30 PM 52.0°F11.1°C 46.3°F7.9°C 81% Calm Calm -- 29.03 in983.1 mb 0.00 in0.0 mm 0.00 in0.0 mm 0.24 in6.1 mm
07:40 PM 52.0°F11.1°C 46.3°F7.9°C 81% Calm Calm -- 29.03 in983.1 mb 0.00 in0.0 mm 0.00 in0.0 mm 0.24 in6.1 mm
07:50 PM 51.6°F10.9°C 46.6°F8.1°C 83% Calm Calm -- 29.03 in983.1 mb 0.00 in0.0 mm 0.00 in0.0 mm 0.24 in6.1 mm
08:00 PM 51.6°F10.9°C 46.6°F8.1°C 83% Calm Calm -- 29.03 in983.1 mb 0.00 in0.0 mm 0.00 in0.0 mm 0.24 in6.1 mm
08:10 PM 51.4°F10.8°C 46.4°F8.0°C 83% Calm Calm -- 29.03 in983.1 mb 0.00 in0.0 mm 0.00 in0.0 mm 0.24 in6.1 mm
08:20 PM 51.1°F10.6°C 46.1°F7.8°C 83% Calm Calm -- 29.03 in983.1 mb 0.00 in0.0 mm 0.00 in0.0 mm 0.24 in6.1 mm
08:30 PM 51.1°F10.6°C 46.4°F8.0°C 84% Calm Calm -- 29.03 in983.1 mb 0.00 in0.0 mm 0.00 in0.0 mm 0.24 in6.1 mm
08:40 PM 51.3°F10.7°C 46.9°F8.3°C 85% Calm Calm -- 29.00 in982.1 mb 0.00 in0.0 mm 0.00 in0.0 mm 0.24 in6.1 mm
08:50 PM 51.3°F10.7°C 46.6°F8.1°C 84% Calm Calm -- 29.03 in983.1 mb 0.00 in0.0 mm 0.00 in0.0 mm 0.24 in6.1 mm
09:00 PM 50.4°F10.2°C 45.4°F7.4°C 83% Calm Calm -- 29.03 in983.1 mb 0.00 in0.0 mm 0.00 in0.0 mm 0.24 in6.1 mm
09:10 PM 50.7°F10.4°C 46.1°F7.8°C 84% Calm Calm -- 29.03 in983.1 mb 0.00 in0.0 mm 0.00 in0.0 mm 0.24 in6.1 mm
09:20 PM 50.2°F10.1°C 45.2°F7.3°C 83% Calm Calm -- 29.06 in984.1 mb 0.00 in0.0 mm 0.00 in0.0 mm 0.24 in6.1 mm
09:30 PM 50.2°F10.1°C 45.5°F7.5°C 84% Calm Calm -- 29.06 in984.1 mb 0.00 in0.0 mm 0.00 in0.0 mm 0.24 in6.1 mm
09:40 PM 50.2°F10.1°C 45.8°F7.7°C 85% Calm Calm -- 29.06 in984.1 mb 0.00 in0.0 mm 0.00 in0.0 mm 0.24 in6.1 mm
09:50 PM 50.2°F10.1°C 45.5°F7.5°C 84% Calm Calm -- 29.06 in984.1 mb 0.00 in0.0 mm 0.00 in0.0 mm 0.24 in6.1 mm
10:00 PM 50.2°F10.1°C 45.5°F7.5°C 84% Calm Calm -- 29.06 in984.1 mb 0.00 in0.0 mm 0.00 in0.0 mm 0.24 in6.1 mm
10:10 PM 50.2°F10.1°C 45.5°F7.5°C 84% Calm Calm -- 29.06 in984.1 mb 0.00 in0.0 mm 0.00 in0.0 mm 0.24 in6.1 mm
10:20 PM 49.6°F9.8°C 45.0°F7.2°C 84% Calm Calm -- 29.06 in984.1 mb 0.00 in0.0 mm 0.00 in0.0 mm 0.24 in6.1 mm
10:30 PM 50.0°F10.0°C 45.7°F7.6°C 85% Calm Calm -- 29.06 in984.1 mb 0.00 in0.0 mm 0.00 in0.0 mm 0.24 in6.1 mm
10:40 PM 50.2°F10.1°C 45.5°F7.5°C 84% Calm Calm -- 29.06 in984.1 mb 0.00 in0.0 mm 0.00 in0.0 mm 0.24 in6.1 mm
10:50 PM 50.0°F10.0°C 45.4°F7.4°C 84% Calm Calm -- 29.06 in984.1 mb 0.00 in0.0 mm 0.00 in0.0 mm 0.24 in6.1 mm
11:00 PM 49.5°F9.7°C 44.8°F7.1°C 84% Calm Calm -- 29.06 in984.1 mb 0.00 in0.0 mm 0.00 in0.0 mm 0.24 in6.1 mm
11:10 PM 49.3°F9.6°C 44.6°F7.0°C 84% Calm Calm -- 29.06 in984.1 mb 0.00 in0.0 mm 0.00 in0.0 mm 0.24 in6.1 mm
11:20 PM 49.6°F9.8°C 45.6°F7.6°C 86% Calm Calm -- 29.06 in984.1 mb 0.00 in0.0 mm 0.00 in0.0 mm 0.24 in6.1 mm
11:30 PM 49.8°F9.9°C 45.8°F7.7°C 86% Calm Calm -- 29.06 in984.1 mb 0.00 in0.0 mm 0.00 in0.0 mm 0.24 in6.1 mm
11:40 PM 50.0°F10.0°C 45.7°F7.6°C 85% Calm Calm -- 29.06 in984.1 mb 0.00 in0.0 mm 0.00 in0.0 mm 0.24 in6.1 mm
11:50 PM 48.9°F9.4°C 44.6°F7.0°C 85% Calm Calm -- 29.09 in985.1 mb 0.00 in0.0 mm 0.00 in0.0 mm 0.24 in6.1 mm